Latest Weather Observations for Eucla

IDW60801

Issued at 5:14 pm WST Friday 19 December 2014 (issued every 30 minutes, with the page automatically refreshed every 10 minutes)

About weather observations | Map of weather stations | Latest weather observations for WA | Other Formats
Station Details ID: 011003 Name: EUCLA Lat: -31.68 Lon: 128.90 Height: 93.1 m
Data from the previous 72 hours. | See also: Recent months at Eucla
Date/Time
WST
Temp
°C
App
Temp
°C
Dew
Point
Rel
Hum
%
Delta-T
°C
Wind Press
QNH
hPa
Press
MSL
hPa
Rain
since 9 am
mm
Dir
 
Spd
km/h
Gust
km/h
Spd
kts
Gust
kts
19/05:00pm 19.5 16.0 13.4 68 3.5 ESE 24 37 13 20 1017.7 1017.5 0.0
19/04:30pm 20.1 15.9 13.6 66 3.7 ESE 28 37 15 20 1017.8 1017.6 0.0
19/04:00pm 20.3 16.4 13.3 64 4.0 ESE 26 41 14 22 1017.9 1017.7 0.0
19/03:48pm 20.9 16.7 13.6 63 4.2 SE 28 46 15 25 1017.9 1017.7 0.0
19/03:30pm 21.0 16.9 13.7 63 4.2 ESE 28 41 15 22 1018.1 1017.9 0.0
19/03:00pm 21.3 17.0 13.2 60 4.6 SE 28 37 15 20 1018.2 1018.0 0.0
19/02:30pm 21.4 17.6 13.6 61 4.5 SE 26 33 14 18 1018.6 1018.4 0.0
19/02:00pm 21.9 18.4 13.5 59 4.9 ESE 24 35 13 19 1019.1 1018.8 0.0
19/01:30pm 22.1 18.7 13.7 59 4.9 ESE 24 39 13 21 1019.3 1019.0 0.0
19/01:00pm 22.0 18.4 13.1 57 5.1 SE 24 37 13 20 1019.5 1019.2 0.0
19/12:30pm 22.3 19.1 13.1 56 5.3 SE 22 35 12 19 1019.8 1019.5 0.0
19/12:00pm 23.0 19.4 13.2 54 5.7 SE 24 33 13 18 1020.2 1019.9 0.0
19/11:30am 22.9 19.6 12.8 53 5.8 ESE 22 32 12 17 1020.5 1020.2 0.0
19/11:00am 22.4 18.9 12.1 52 5.8 ESE 22 33 12 18 1020.9 1020.6 0.0
19/10:30am 21.7 18.7 12.0 54 5.5 ESE 19 30 10 16 1021.0 1020.7 0.0
19/10:00am 21.5 18.1 11.2 52 5.7 SE 20 32 11 17 1021.2 1020.9 0.0
19/09:30am 21.6 18.5 12.2 55 5.3 SE 20 30 11 16 1021.4 1021.1 0.0
19/09:00am 21.9 19.1 12.5 55 5.3 SE 19 28 10 15 1021.6 1021.3 0.0
19/08:30am 22.1 19.4 11.8 52 5.8 ESE 17 28 9 15 1021.5 1021.2 0.0
19/08:00am 21.1 18.5 12.0 56 5.1 SE 17 28 9 15 1021.4 1021.1 0.0
19/07:30am 20.8 18.5 11.7 56 5.1 ESE 15 22 8 12 1021.3 1021.0 0.0
19/07:00am 20.3 18.1 12.0 59 4.6 ESE 15 26 8 14 1021.2 1020.9 0.0
19/06:30am 19.9 18.0 11.7 59 4.6 ESE 13 20 7 11 1021.0 1020.7 0.0
19/06:00am 19.4 17.8 11.4 60 4.4 E 11 15 6 8 1020.8 1020.5 0.0
19/05:30am 17.8 16.2 11.4 66 3.5 E 11 15 6 8 1020.7 1020.4 0.0
19/05:00am 15.4 14.0 10.8 74 2.4 ENE 9 11 5 6 1020.5 1020.2 0.0
19/04:30am 14.7 13.6 10.7 77 2.1 NE 7 9 4 5 1020.2 1019.9 0.0
19/04:00am 13.7 12.5 10.3 80 1.8 NE 7 7 4 4 1019.8 1019.5 0.0
19/03:30am 14.3 12.7 10.3 77 2.1 NE 9 11 5 6 1019.9 1019.6 0.0
19/03:00am 14.9 13.8 10.7 76 2.2 NE 7 7 4 4 1019.6 1019.3 0.0
19/02:30am 14.9 13.8 10.5 75 2.3 NE 7 11 4 6 1019.5 1019.2 0.0
19/02:00am 15.2 13.8 10.8 75 2.3 ENE 9 9 5 5 1019.5 1019.2 0.0
19/01:30am 15.3 14.2 10.7 74 2.4 ENE 7 9 4 5 1019.5 1019.2 0.0
19/01:00am 16.6 15.2 10.9 69 3.1 E 9 13 5 7 1019.6 1019.3 0.0
19/12:30am 17.3 15.2 11.3 68 3.3 E 13 19 7 10 1019.6 1019.3 0.0
19/12:00am 17.0 15.0 11.5 70 3.0 ESE 13 19 7 10 1019.7 1019.4 0.0
 
Date/Time
WST
Temp
°C
App
Temp
°C
Dew
Point
Rel
Hum
%
Delta-T
°C
Wind Press
QNH
hPa
Press
MSL
hPa
Rain
since 9 am
mm
Dir
 
Spd
km/h
Gust
km/h
Spd
kts
Gust
kts
18/11:30pm 17.5 15.5 11.5 68 3.3 ESE 13 19 7 10 1019.8 1019.5 0.0
18/11:00pm 16.7 14.9 10.8 68 3.2 ESE 11 17 6 9 1019.9 1019.6 0.0
18/10:30pm 17.1 14.9 10.7 66 3.4 ESE 13 19 7 10 1020.2 1019.9 0.0
18/10:00pm 17.3 14.5 11.3 68 3.3 ESE 17 26 9 14 1020.1 1019.8 0.0
18/09:30pm 17.6 15.1 12.3 71 2.9 ESE 17 26 9 14 1020.1 1019.8 0.0
18/09:00pm 17.6 15.4 12.1 70 3.0 SE 15 22 8 12 1019.9 1019.6 0.0
18/08:30pm 18.1 15.3 12.5 70 3.1 SE 19 28 10 15 1019.8 1019.5 0.0
18/08:00pm 17.8 15.7 12.3 70 3.0 SE 15 24 8 13 1019.6 1019.3 0.0
18/07:30pm 17.9 15.6 11.9 68 3.3 SE 15 22 8 12 1019.4 1019.1 0.0
18/07:00pm 18.5 16.1 12.7 69 3.3 SE 17 24 9 13 1019.1 1018.8 0.0
18/06:30pm 18.6 16.6 12.6 68 3.4 SE 15 24 8 13 1019.1 1018.8 0.0
18/06:00pm 19.0 16.4 12.0 64 3.9 SE 17 24 9 13 1018.9 1018.7 0.0
18/05:30pm 19.6 16.9 11.6 60 4.4 SSE 17 24 9 13 1018.7 1018.5 0.0
18/05:00pm 20.0 16.9 11.5 58 4.7 SSE 19 28 10 15 1018.3 1018.1 0.0
18/04:30pm 20.2 17.1 11.7 58 4.7 SSE 19 30 10 16 1018.1 1017.9 0.0
18/04:00pm 21.8 19.4 12.6 56 5.2 S 17 26 9 14 1018.0 1017.8 0.0
18/03:30pm 21.4 18.3 11.7 54 5.4 SSE 19 28 10 15 1017.8 1017.6 0.0
18/03:00pm 21.3 18.1 11.1 52 5.6 S 19 30 10 16 1017.8 1017.6 0.0
18/02:30pm 22.9 19.6 11.6 49 6.4 S 20 30 11 16 1017.8 1017.6 0.0
18/02:00pm 22.8 19.5 10.9 47 6.6 SSE 19 30 10 16 1017.9 1017.7 0.0
18/01:30pm 22.6 19.1 11.0 48 6.5 SSE 20 33 11 18 1017.8 1017.6 0.0
18/01:00pm 22.9 19.4 11.0 47 6.6 SSE 20 33 11 18 1017.8 1017.6 0.0
18/12:30pm 22.3 18.8 10.8 48 6.4 SSE 20 32 11 17 1017.7 1017.5 0.0
18/12:00pm 22.6 19.0 10.4 46 6.7 S 20 30 11 16 1017.7 1017.5 0.0
18/11:30am 23.1 19.9 11.2 47 6.7 S 19 30 10 16 1017.8 1017.6 0.0
18/11:00am 22.1 19.0 10.3 47 6.5 SSE 17 28 9 15 1017.9 1017.7 0.0
18/10:30am 22.8 19.6 11.2 48 6.5 SSE 19 32 10 17 1017.8 1017.6 0.0
18/10:00am 22.9 19.7 11.3 48 6.5 SSE 19 28 10 15 1017.7 1017.5 0.0
18/09:30am 23.2 20.1 11.6 48 6.5 SSE 19 28 10 15 1017.5 1017.3 0.0
18/09:00am 22.0 19.1 11.1 50 6.0 S 17 28 9 15 1017.3 1017.1 0.0
18/08:30am 21.4 18.1 10.9 51 5.8 S 19 32 10 17 1017.2 1017.0 0.0
18/08:00am 20.2 17.5 11.7 58 4.7 SSE 17 26 9 14 1017.2 1017.0 0.0
18/07:30am 20.5 16.9 10.6 53 5.4 S 20 30 11 16 1017.0 1016.8 0.0
18/07:00am 19.8 16.7 11.6 59 4.5 S 19 26 10 14 1016.6 1016.3 0.0
18/06:30am 19.6 16.3 10.9 57 4.8 S 19 30 10 16 1016.1 1015.8 0.0
18/06:00am 19.8 16.8 10.8 56 4.9 S 17 26 9 14 1015.7 1015.4 0.0
18/05:30am 18.9 15.9 10.7 59 4.4 S 17 24 9 13 1015.2 1014.9 0.0
18/05:00am 18.0 16.0 11.6 66 3.5 S 13 19 7 10 1014.7 1014.4 0.0
18/04:30am 17.5 15.3 12.0 70 3.0 S 15 24 8 13 1014.4 1014.1 0.0
18/04:00am 17.0 15.1 11.9 72 2.8 S 13 22 7 12 1014.1 1013.8 0.0
18/03:30am 17.1 14.8 11.8 71 2.9 S 15 24 8 13 1013.7 1013.4 0.0
18/03:00am 17.4 14.9 12.3 72 2.8 S 17 26 9 14 1013.5 1013.2 0.0
18/02:30am 17.8 15.0 12.5 71 3.0 S 19 33 10 18 1013.3 1013.0 0.0
18/02:00am 17.7 15.8 13.0 74 2.6 SSE 15 24 8 13 1012.9 1012.6 0.0
18/01:30am 17.7 16.3 13.4 76 2.4 SSE 13 19 7 10 1012.7 1012.4 0.0
18/01:00am 17.9 16.1 13.4 75 2.6 SSE 15 26 8 14 1012.7 1012.4 0.0
18/12:30am 17.7 15.8 13.0 74 2.6 SSE 15 22 8 12 1012.6 1012.3 0.0
18/12:00am 17.7 15.4 13.0 74 2.6 SSE 17 26 9 14 1012.6 1012.3 0.0
 
Date/Time
WST
Temp
°C
App
Temp
°C
Dew
Point
Rel
Hum
%
Delta-T
°C
Wind Press
QNH
hPa
Press
MSL
hPa
Rain
since 9 am
mm
Dir
 
Spd
km/h
Gust
km/h
Spd
kts
Gust
kts
17/11:30pm 17.8 15.4 12.7 72 2.9 SSE 17 26 9 14 1012.5 1012.2 0.0
17/11:00pm 17.8 15.0 13.1 74 2.7 SSE 20 30 11 16 1012.4 1012.1 0.0
17/10:30pm 17.7 15.0 13.0 74 2.6 SSE 19 32 10 17 1012.4 1012.1 0.0
17/10:00pm 17.9 15.3 13.2 74 2.7 SSE 19 32 10 17 1012.4 1012.1 0.0
17/09:30pm 17.8 15.2 13.1 74 2.7 SSE 19 28 10 15 1012.3 1012.0 0.0
17/09:00pm 17.8 14.9 12.9 73 2.8 SSE 20 30 11 16 1011.9 1011.6 0.0
17/08:30pm 17.8 14.8 12.7 72 2.9 SSE 20 32 11 17 1011.6 1011.3 0.0
17/08:00pm 17.9 15.0 13.0 73 2.8 SSE 20 32 11 17 1011.1 1010.8 0.0
17/07:30pm 18.1 14.9 13.0 72 2.9 SE 22 35 12 19 1010.5 1010.2 0.0
17/07:00pm 18.0 14.7 12.9 72 2.9 SE 22 32 12 17 1009.9 1009.6 0.0
17/06:30pm 18.2 14.6 13.1 72 2.9 SE 24 33 13 18 1009.5 1009.2 0.0
17/06:00pm 18.7 15.6 13.3 71 3.1 SE 22 33 12 18 1008.8 1008.5 0.0
17/05:30pm 19.3 15.7 13.2 68 3.5 SE 24 37 13 20 1008.6 1008.3 0.0
17/05:00pm 20.0 16.1 13.2 65 3.9 SE 26 39 14 21 1008.0 1007.7 0.0
17/04:30pm 20.2 16.3 13.2 64 4.0 SE 26 37 14 20 1007.6 1007.4 0.0
17/04:00pm 21.1 16.4 13.3 61 4.5 SE 30 44 16 24 1007.5 1007.2 0.0
17/03:30pm 21.6 17.8 13.5 60 4.7 SE 26 39 14 21 1007.3 1007.0 0.0
17/03:19pm 21.5 17.3 13.4 60 4.7 ESE 28 46 15 25 1007.2 1006.9 0.0
17/03:00pm 21.8 17.7 13.7 60 4.7 SE 28 41 15 22 1007.2 1006.9 0.0
17/02:30pm 21.9 17.3 13.5 59 4.9 SE 30 39 16 21 1007.4 1007.1 0.0
17/02:00pm 23.4 20.3 14.4 57 5.3 SE 24 39 13 21 1007.7 1007.5 0.0
17/01:30pm 23.5 20.3 14.2 56 5.5 SE 24 35 13 19 1008.0 1007.7 0.0
17/01:00pm 23.5 20.3 14.2 56 5.5 SE 24 35 13 19 1008.0 1007.7 0.0
17/12:30pm 24.6 21.0 13.2 49 6.7 ESE 24 33 13 18 1007.7 1007.5 0.0
17/12:00pm 23.9 20.0 13.4 51 6.1 ESE 26 37 14 20 1007.6 1007.4 0.0
17/11:30am 24.1 20.3 12.4 48 6.7 ESE 24 33 13 18 1008.3 1008.0 0.0
17/11:00am 25.1 22.1 12.7 46 7.2 SE 20 30 11 16 1008.7 1008.4 0.0
17/10:30am 25.2 22.8 12.8 46 7.2 SE 17 26 9 14 1008.9 1008.6 0.0
17/10:00am 27.5 25.0 8.4 30 10.4 N 11 20 6 11 1009.1 1008.8 0.0
17/09:30am 25.6 22.2 7.7 32 9.5 NE 15 20 8 11 1009.4 1009.1 0.0
17/09:00am 25.1 21.4 8.1 34 9.1 NE 17 28 9 15 1009.7 1009.4 0.0
17/08:30am 23.9 20.7 8.3 37 8.3 ENE 15 22 8 12 1010.2 1009.9 0.0
17/08:00am 22.0 18.9 8.9 43 7.0 NNE 15 24 8 13 1010.6 1010.3 0.0
17/07:30am 20.5 17.5 9.4 49 5.9 NNE 15 22 8 12 1011.0 1010.7 0.0
17/07:00am 19.2 15.9 9.7 54 5.1 NE 17 26 9 14 1011.1 1010.8 0.0
17/06:30am 18.0 14.4 9.9 59 4.3 NNE 19 26 10 14 1011.1 1010.8 0.0
17/06:00am 16.6 13.8 10.0 65 3.5 NNE 15 22 8 12 1010.7 1010.4 0.0
17/05:30am 14.3 11.3 9.3 72 2.6 NE 15 20 8 11 1010.7 1010.4 0.0
17/05:00am 12.1 9.3 8.6 79 1.7 NE 13 17 7 9 1010.6 1010.3 0.0
17/04:30am 10.7 7.7 7.9 83 1.4 NE 13 15 7 8 1010.7 1010.4 0.0
17/04:00am 10.9 8.4 8.1 83 1.4 NE 11 13 6 7 1010.9 1010.6 0.0
17/03:30am 10.6 8.1 8.0 84 1.3 NE 11 15 6 8 1010.9 1010.6 0.0
17/03:00am 10.6 8.1 8.2 85 1.2 NNE 11 15 6 8 1011.1 1010.8 0.0
17/02:30am 10.7 8.2 8.1 84 1.3 NE 11 13 6 7 1011.2 1010.9 0.0
17/02:00am 11.1 8.6 8.1 82 1.5 NE 11 13 6 7 1011.2 1010.9 0.0
17/01:30am 11.2 8.7 8.2 82 1.5 NNE 11 13 6 7 1011.4 1011.1 0.0
17/01:00am 11.1 8.9 8.0 81 1.5 NNE 9 11 5 6 1011.7 1011.4 0.0
17/12:30am 12.2 10.1 8.1 76 2.0 ENE 9 11 5 6 1011.9 1011.6 0.0
17/12:00am 13.5 11.4 8.4 71 2.6 E 9 11 5 6 1012.2 1011.9 0.0
 
Date/Time
WST
Temp
°C
App
Temp
°C
Dew
Point
Rel
Hum
%
Delta-T
°C
Wind Press
QNH
hPa
Press
MSL
hPa
Rain
since 9 am
mm
Dir
 
Spd
km/h
Gust
km/h
Spd
kts
Gust
kts
16/11:30pm 14.8 12.8 8.7 67 3.1 ESE 9 13 5 7 1012.4 1012.1 0.0
16/11:00pm 15.4 13.1 9.1 66 3.2 SE 11 15 6 8 1012.4 1012.1 0.0
16/10:30pm 15.5 12.9 9.2 66 3.3 SE 13 17 7 9 1012.5 1012.2 0.0
16/10:00pm 16.0 13.4 9.4 65 3.4 SE 13 20 7 11 1012.6 1012.3 0.0
16/09:30pm 16.0 13.4 9.4 65 3.4 SE 13 19 7 10 1012.5 1012.2 0.0
16/09:00pm 16.1 13.5 9.3 64 3.5 SE 13 20 7 11 1012.4 1012.1 0.0
16/08:30pm 16.4 13.0 9.3 63 3.7 SE 17 26 9 14 1012.5 1012.2 0.0
16/08:00pm 16.5 13.2 9.7 64 3.6 SE 17 26 9 14 1012.4 1012.1 0.0
16/07:30pm 16.6 14.1 9.8 64 3.6 SE 13 17 7 9 1012.6 1012.3 0.0
16/07:00pm 16.8 13.9 9.7 63 3.7 SE 15 26 8 14 1012.7 1012.4 0.0
16/06:30pm 17.2 14.1 10.3 64 3.7 SSE 17 24 9 13 1012.5 1012.2 0.0
16/06:00pm 17.9 14.8 10.3 61 4.1 SSE 17 22 9 12 1012.6 1012.3 0.0
16/05:30pm 18.4 15.5 9.7 57 4.6 S 15 24 8 13 1012.6 1012.3 0.0

Other Formats:

Comma delimited format used in spreadsheet applications
http://www.bom.gov.au/fwo/IDW60801/IDW60801.94647.axf

JavaScript Object Notation format (JSON) in row-major order
http://www.bom.gov.au/fwo/IDW60801/IDW60801.94647.json